Аэропорт: Наримановка. Костанай

ICAO: UAUU

METAR:
2018/11/21 18:30
UAUU 211830Z 20006MPS 9999 BKN033 M05/M06 Q1001 R15/090060 NOSIG RMK QFE734/0979
METAR:
2017/12/04 06:03
TAF TAF UAUU 040500Z 0406/0418 20005MPS 6000 SCT006 BKN010CB 
      TEMPO 0407/0415 20012MPS 2000 -SHSN BLSN